createdAt,value
2023-01-30T00:00:57.844Z,61.74
2023-01-30T00:03:24.689Z,61.53
2023-01-30T00:05:50.686Z,61.41
2023-01-30T00:08:17.134Z,61.15
2023-01-30T00:10:43.552Z,61.21
2023-01-30T00:13:09.989Z,61.18
2023-01-30T00:15:36.755Z,61.34
2023-01-30T00:18:03.391Z,61.71
2023-01-30T00:20:29.643Z,61.79
2023-01-30T00:23:00.815Z,61.67
2023-01-30T00:25:27.903Z,61.40
2023-01-30T00:27:53.912Z,61.40
2023-01-30T00:30:20.254Z,61.63
2023-01-30T00:32:46.276Z,61.69
2023-01-30T00:35:12.281Z,61.84
2023-01-30T00:37:38.347Z,62.13
2023-01-30T00:40:04.830Z,62.16
2023-01-30T00:42:49.483Z,62.32
2023-01-30T00:45:34.404Z,62.39
2023-01-30T00:48:00.564Z,62.72
2023-01-30T00:50:41.691Z,62.97
2023-01-30T00:53:15.697Z,63.21
2023-01-30T00:55:42.650Z,63.24
2023-01-30T00:58:09.218Z,63.42
2023-01-30T01:00:35.604Z,63.49
2023-01-30T01:03:01.612Z,63.69
2023-01-30T01:05:28.230Z,63.70
2023-01-30T01:07:55.015Z,63.76
2023-01-30T01:10:23.035Z,64.01
2023-01-30T01:12:53.272Z,64.19
2023-01-30T01:15:20.923Z,64.28
2023-01-30T01:17:48.596Z,64.25
2023-01-30T01:20:15.173Z,64.31
2023-01-30T01:22:41.193Z,64.22
2023-01-30T01:25:09.452Z,64.24
2023-01-30T01:27:36.198Z,64.16
2023-01-30T01:30:02.466Z,64.04
2023-01-30T01:32:28.623Z,64.32
2023-01-30T01:34:54.536Z,64.30
2023-01-30T01:37:20.434Z,64.35
2023-01-30T01:40:05.115Z,64.49
2023-01-30T01:42:35.031Z,64.56
2023-01-30T01:45:16.825Z,64.64
2023-01-30T01:47:56.968Z,64.70
2023-01-30T01:50:29.104Z,64.82
2023-01-30T01:52:58.928Z,64.83
2023-01-30T01:55:26.542Z,64.41
2023-01-30T01:58:04.061Z,64.27
2023-01-30T02:00:31.338Z,63.39
2023-01-30T02:03:01.979Z,62.84
2023-01-30T02:05:36.095Z,62.55
2023-01-30T02:08:32.918Z,62.34
2023-01-30T02:11:36.765Z,62.33
2023-01-30T02:14:05.121Z,61.86
2023-01-30T02:16:31.098Z,61.73
2023-01-30T02:18:57.453Z,61.92
2023-01-30T02:21:50.644Z,61.98
2023-01-30T02:24:30.627Z,62.11
2023-01-30T02:27:27.333Z,62.10
2023-01-30T02:30:02.728Z,62.05
2023-01-30T02:32:48.951Z,62.08
2023-01-30T02:35:27.676Z,61.89
2023-01-30T02:38:20.580Z,61.87
2023-01-30T02:41:20.029Z,61.75
2023-01-30T02:44:07.890Z,62.01
2023-01-30T02:46:49.815Z,62.03
2023-01-30T02:49:23.254Z,61.86
2023-01-30T02:51:50.729Z,61.93
2023-01-30T02:54:16.931Z,61.68
2023-01-30T02:56:45.573Z,61.66
2023-01-30T02:59:15.189Z,61.36
2023-01-30T03:01:53.404Z,60.68
2023-01-30T03:04:57.877Z,60.23
2023-01-30T03:07:34.541Z,59.75
2023-01-30T03:10:05.995Z,59.52
2023-01-30T03:12:48.231Z,59.19
2023-01-30T03:15:27.788Z,59.05
2023-01-30T03:17:54.311Z,58.81
2023-01-30T03:20:21.077Z,58.82
2023-01-30T03:22:47.247Z,58.76
2023-01-30T03:25:19.123Z,58.67
2023-01-30T03:27:45.920Z,58.86
2023-01-30T03:30:12.352Z,58.89
2023-01-30T03:32:38.288Z,58.80
2023-01-30T03:35:04.641Z,58.87
2023-01-30T03:37:31.006Z,59.11
2023-01-30T03:39:58.259Z,59.40
2023-01-30T03:42:24.731Z,59.45
2023-01-30T03:44:50.836Z,59.71
2023-01-30T03:47:16.771Z,59.98
2023-01-30T03:49:42.834Z,59.60
2023-01-30T03:52:08.847Z,59.54
2023-01-30T03:54:34.814Z,59.50
2023-01-30T03:57:00.752Z,59.57
2023-01-30T03:59:26.855Z,59.44
2023-01-30T04:01:59.006Z,59.73
2023-01-30T04:04:24.990Z,59.61
2023-01-30T04:06:51.177Z,59.50
2023-01-30T04:09:17.255Z,59.27
2023-01-30T04:11:45.588Z,59.25
2023-01-30T04:14:11.701Z,59.17
2023-01-30T04:16:46.438Z,59.01
2023-01-30T04:19:38.722Z,58.69
2023-01-30T04:22:04.840Z,58.69
2023-01-30T04:24:30.842Z,58.47
2023-01-30T04:26:57.270Z,58.38
2023-01-30T04:29:24.494Z,58.42
2023-01-30T04:31:51.472Z,58.34
2023-01-30T04:34:20.976Z,58.19
2023-01-30T04:36:46.940Z,58.73
2023-01-30T04:39:13.013Z,59.06
2023-01-30T04:41:39.804Z,59.14
2023-01-30T04:44:05.907Z,59.26
2023-01-30T04:46:39.780Z,59.38
2023-01-30T04:49:05.806Z,59.50
2023-01-30T04:51:32.012Z,59.48
2023-01-30T04:53:58.658Z,59.61
2023-01-30T04:56:24.597Z,59.49
2023-01-30T04:58:52.211Z,59.00
2023-01-30T05:01:21.390Z,58.78
2023-01-30T05:03:53.220Z,58.57
2023-01-30T05:06:20.383Z,58.43
2023-01-30T05:08:54.346Z,58.27
2023-01-30T05:11:21.790Z,58.29
2023-01-30T05:13:48.689Z,58.52
2023-01-30T05:16:15.835Z,58.60
2023-01-30T05:18:42.590Z,58.22
2023-01-30T05:21:14.119Z,58.10
2023-01-30T05:23:40.514Z,57.83
2023-01-30T05:26:06.633Z,57.75
2023-01-30T05:28:33.281Z,57.89
2023-01-30T05:31:08.234Z,57.76
2023-01-30T05:33:34.495Z,57.72
2023-01-30T05:36:01.016Z,57.96
2023-01-30T05:38:27.623Z,57.91
2023-01-30T05:41:05.501Z,58.01
2023-01-30T05:43:32.828Z,57.76
2023-01-30T05:46:00.341Z,57.72
2023-01-30T05:48:28.084Z,57.75
2023-01-30T05:50:56.500Z,57.95
2023-01-30T05:53:25.938Z,58.20
2023-01-30T05:55:58.762Z,58.45
2023-01-30T05:58:25.580Z,58.68
2023-01-30T06:00:51.832Z,59.00
2023-01-30T06:03:18.101Z,59.13
2023-01-30T06:05:44.053Z,59.24
2023-01-30T06:08:10.264Z,59.45
2023-01-30T06:10:36.601Z,59.78
2023-01-30T06:13:03.145Z,59.77
2023-01-30T06:15:29.711Z,60.25
2023-01-30T06:17:55.663Z,60.40
2023-01-30T06:20:21.576Z,60.41
2023-01-30T06:22:48.474Z,60.37
2023-01-30T06:25:14.875Z,60.72
2023-01-30T06:27:42.635Z,61.16
2023-01-30T06:30:09.285Z,61.55
2023-01-30T06:32:35.244Z,61.91
2023-01-30T06:35:01.250Z,61.95
2023-01-30T06:37:27.216Z,62.11
2023-01-30T06:39:53.208Z,62.08
2023-01-30T06:42:19.140Z,62.29
2023-01-30T06:44:45.070Z,62.56
2023-01-30T06:47:11.049Z,62.63
2023-01-30T06:49:37.157Z,62.72
2023-01-30T06:52:03.300Z,62.87
2023-01-30T06:54:29.466Z,62.74
2023-01-30T06:56:55.476Z,62.69
2023-01-30T06:59:21.433Z,63.68
2023-01-30T07:01:47.352Z,63.07
2023-01-30T07:04:13.270Z,62.58
2023-01-30T07:06:40.260Z,62.34
2023-01-30T07:09:06.382Z,62.19
2023-01-30T07:11:32.370Z,61.95
2023-01-30T07:13:58.387Z,62.04
2023-01-30T07:16:28.550Z,62.11
2023-01-30T07:18:57.917Z,61.69
2023-01-30T07:21:24.751Z,61.46
2023-01-30T07:23:50.671Z,61.61
2023-01-30T07:26:16.637Z,61.15
2023-01-30T07:28:42.635Z,60.48
2023-01-30T07:31:08.579Z,60.06
2023-01-30T07:33:34.524Z,59.84
2023-01-30T07:36:00.499Z,59.97
2023-01-30T07:38:26.389Z,59.50
2023-01-30T07:40:52.287Z,59.70
2023-01-30T07:43:18.393Z,60.09
2023-01-30T07:45:48.353Z,60.17
2023-01-30T07:48:17.253Z,60.13
2023-01-30T07:50:44.407Z,59.97
2023-01-30T07:53:13.253Z,59.94
2023-01-30T07:55:39.574Z,60.38
2023-01-30T07:58:05.496Z,60.65
2023-01-30T08:00:31.774Z,60.62
2023-01-30T08:02:58.310Z,60.45
2023-01-30T08:05:24.999Z,60.27
2023-01-30T08:07:50.956Z,60.35
2023-01-30T08:10:17.463Z,60.30
2023-01-30T08:12:43.583Z,60.34
2023-01-30T08:15:10.265Z,60.16
2023-01-30T08:17:36.332Z,60.12
2023-01-30T08:20:03.998Z,60.20
2023-01-30T08:22:29.925Z,60.25
2023-01-30T08:24:55.811Z,60.09
2023-01-30T08:27:21.804Z,60.40
2023-01-30T08:29:47.693Z,60.46
2023-01-30T08:32:14.901Z,60.41
2023-01-30T08:34:41.876Z,60.52
2023-01-30T08:37:07.867Z,60.92
2023-01-30T08:39:35.347Z,61.41
2023-01-30T08:42:02.366Z,61.78
2023-01-30T08:44:28.358Z,62.01
2023-01-30T08:46:54.507Z,62.28
2023-01-30T08:49:20.393Z,62.64
2023-01-30T08:51:46.435Z,62.83
2023-01-30T08:54:12.380Z,63.04
2023-01-30T08:56:38.301Z,62.96
2023-01-30T08:59:05.281Z,62.96
2023-01-30T09:01:31.380Z,62.85
2023-01-30T09:03:57.297Z,62.62
2023-01-30T09:06:26.104Z,62.10
2023-01-30T09:08:52.221Z,61.33
2023-01-30T09:11:18.195Z,61.03
2023-01-30T09:13:44.197Z,59.98
2023-01-30T09:16:10.827Z,59.76
2023-01-30T09:18:44.214Z,59.89
2023-01-30T09:21:12.086Z,59.58
2023-01-30T09:23:38.525Z,59.95
2023-01-30T09:26:05.505Z,59.74
2023-01-30T09:28:32.195Z,59.64
2023-01-30T09:30:59.485Z,60.00
2023-01-30T09:33:26.565Z,59.97
2023-01-30T09:35:52.805Z,60.38
2023-01-30T09:38:20.893Z,60.40
2023-01-30T09:41:06.256Z,60.31
2023-01-30T09:44:03.625Z,59.96
2023-01-30T09:46:42.322Z,60.21
2023-01-30T09:49:27.471Z,60.05
2023-01-30T09:52:05.492Z,59.95
2023-01-30T09:54:38.547Z,59.72
2023-01-30T09:57:20.576Z,59.57
2023-01-30T10:00:13.038Z,59.84
2023-01-30T10:02:53.526Z,59.19
2023-01-30T10:05:19.618Z,59.43
2023-01-30T10:08:04.239Z,59.48
2023-01-30T10:10:39.388Z,59.45
2023-01-30T10:13:23.024Z,59.67
2023-01-30T10:16:18.159Z,59.63
2023-01-30T10:19:10.634Z,59.83
2023-01-30T10:21:57.072Z,59.46
2023-01-30T10:24:52.251Z,59.66
2023-01-30T10:27:20.524Z,59.65
2023-01-30T10:29:52.433Z,59.96
2023-01-30T10:32:26.307Z,60.00
2023-01-30T10:34:56.200Z,59.77
2023-01-30T10:37:34.385Z,60.01
2023-01-30T10:40:12.930Z,59.46
2023-01-30T10:42:45.465Z,59.15
2023-01-30T10:45:16.504Z,59.08
2023-01-30T10:48:42.623Z,58.09
2023-01-30T10:51:45.740Z,57.38
2023-01-30T10:54:48.702Z,57.00
2023-01-30T10:57:26.965Z,56.46
2023-01-30T11:00:05.172Z,56.05
2023-01-30T11:02:49.034Z,55.78
2023-01-30T11:05:23.537Z,54.75
2023-01-30T11:07:49.619Z,54.98
2023-01-30T11:10:22.630Z,54.00
2023-01-30T11:12:56.066Z,53.44
2023-01-30T11:15:25.226Z,53.95
2023-01-30T11:18:40.430Z,53.58
2023-01-30T11:21:05.437Z,52.88
2023-01-30T11:23:31.308Z,52.38
2023-01-30T11:26:10.381Z,51.75
2023-01-30T11:28:43.329Z,50.78
2023-01-30T11:31:40.037Z,50.78
2023-01-30T11:34:15.956Z,50.25
2023-01-30T11:36:42.477Z,49.80
2023-01-30T11:39:11.506Z,49.86
2023-01-30T11:41:53.621Z,49.43
2023-01-30T11:44:28.653Z,49.10
2023-01-30T11:46:59.011Z,48.15
2023-01-30T11:49:48.159Z,48.21
2023-01-30T11:52:31.301Z,46.78
2023-01-30T11:55:07.804Z,47.25
2023-01-30T11:57:43.887Z,46.46
2023-01-30T12:00:47.817Z,45.70
2023-01-30T12:03:17.820Z,46.49
2023-01-30T12:05:46.379Z,46.40
2023-01-30T12:08:40.487Z,46.75
2023-01-30T12:11:31.382Z,46.03
2023-01-30T12:14:16.130Z,45.77
2023-01-30T12:17:36.421Z,45.90
2023-01-30T12:20:11.036Z,45.73
2023-01-30T12:23:25.083Z,45.35
2023-01-30T12:25:54.035Z,45.31
2023-01-30T12:28:25.113Z,43.99
2023-01-30T12:30:58.417Z,43.40
2023-01-30T12:33:47.233Z,43.42
2023-01-30T12:36:20.163Z,43.34
2023-01-30T12:38:57.680Z,43.84
2023-01-30T12:42:01.354Z,43.67
2023-01-30T12:44:46.821Z,44.36
2023-01-30T12:47:21.519Z,44.12
2023-01-30T12:50:35.699Z,44.00
2023-01-30T12:53:28.432Z,43.30
2023-01-30T12:56:22.082Z,43.90
2023-01-30T12:58:56.663Z,44.00
2023-01-30T13:01:28.938Z,44.53
2023-01-30T13:04:08.830Z,44.54
2023-01-30T13:06:57.253Z,44.27
2023-01-30T13:09:57.870Z,44.45
2023-01-30T13:12:48.754Z,44.26
2023-01-30T13:15:53.187Z,44.15
2023-01-30T13:18:27.877Z,44.32
2023-01-30T13:24:29.386Z,44.04
2023-01-30T13:26:59.748Z,44.29
2023-01-30T13:29:32.237Z,44.49
2023-01-30T13:32:02.020Z,43.96
2023-01-30T13:34:38.883Z,44.62
2023-01-30T13:37:14.531Z,44.87
2023-01-30T13:39:52.951Z,45.12
2023-01-30T13:42:45.496Z,44.97
2023-01-30T13:45:23.605Z,45.12
2023-01-30T13:48:12.682Z,44.82
2023-01-30T13:51:16.316Z,45.18
2023-01-30T13:53:51.458Z,45.80
2023-01-30T13:56:42.040Z,45.83
2023-01-30T13:59:29.604Z,45.99
2023-01-30T14:01:58.880Z,45.84
2023-01-30T14:04:40.300Z,46.33
2023-01-30T14:07:12.357Z,46.43
2023-01-30T14:10:11.072Z,46.78
2023-01-30T14:12:51.519Z,47.19
2023-01-30T14:15:20.977Z,46.94
2023-01-30T14:18:19.215Z,46.40
2023-01-30T14:20:47.299Z,46.96
2023-01-30T14:23:36.685Z,47.19
2023-01-30T14:26:02.954Z,47.68
2023-01-30T14:28:28.937Z,47.75
2023-01-30T14:31:00.671Z,48.03
2023-01-30T14:33:26.651Z,47.92
2023-01-30T14:36:01.965Z,48.02
2023-01-30T14:38:32.991Z,48.76
2023-01-30T14:40:59.337Z,49.30
2023-01-30T14:43:25.321Z,49.11
2023-01-30T14:45:52.201Z,49.20
2023-01-30T14:48:46.335Z,49.59
2023-01-30T14:51:39.900Z,49.67
2023-01-30T14:54:12.183Z,49.73
2023-01-30T14:56:47.011Z,49.14
2023-01-30T14:59:15.638Z,49.02
2023-01-30T15:02:12.402Z,48.87
2023-01-30T15:04:46.114Z,48.29
2023-01-30T15:07:40.220Z,48.04
2023-01-30T15:10:13.223Z,47.97
2023-01-30T15:13:16.451Z,47.95
2023-01-30T15:16:01.261Z,47.64
2023-01-30T15:18:29.957Z,47.26
2023-01-30T15:21:21.584Z,47.33
2023-01-30T15:24:12.353Z,47.14
2023-01-30T15:27:06.477Z,47.29
2023-01-30T15:30:00.526Z,47.44
2023-01-30T15:32:29.746Z,48.13
2023-01-30T15:35:18.217Z,48.38
2023-01-30T15:37:50.465Z,48.93
2023-01-30T15:40:19.410Z,49.15
2023-01-30T15:42:50.757Z,49.21
2023-01-30T15:45:35.268Z,49.71
2023-01-30T15:48:17.159Z,50.14
2023-01-30T15:50:53.178Z,50.25
2023-01-30T15:53:24.881Z,50.98
2023-01-30T15:55:52.829Z,51.53
2023-01-30T15:58:21.411Z,51.75
2023-01-30T16:00:50.016Z,52.44
2023-01-30T16:03:21.876Z,52.63
2023-01-30T16:05:56.598Z,53.07
2023-01-30T16:08:26.587Z,53.24
2023-01-30T16:10:53.141Z,53.87
2023-01-30T16:13:22.406Z,54.19
2023-01-30T16:15:53.969Z,54.42
2023-01-30T16:18:38.137Z,54.88
2023-01-30T16:21:09.271Z,55.47
2023-01-30T16:23:42.689Z,55.80
2023-01-30T16:26:17.171Z,56.53
2023-01-30T16:28:44.331Z,57.10
2023-01-30T16:31:11.188Z,57.25
2023-01-30T16:33:37.730Z,57.79
2023-01-30T16:36:25.166Z,57.99
2023-01-30T16:38:52.984Z,58.57
2023-01-30T16:41:32.932Z,58.84
2023-01-30T16:44:17.617Z,59.06
2023-01-30T16:46:48.427Z,59.47
2023-01-30T16:49:24.259Z,59.64
2023-01-30T16:52:00.602Z,59.96
2023-01-30T16:54:29.453Z,60.27
2023-01-30T16:56:58.639Z,60.44
2023-01-30T16:59:34.987Z,60.65
2023-01-30T17:02:03.652Z,60.77
2023-01-30T17:04:35.144Z,61.15
2023-01-30T17:07:04.056Z,61.18
2023-01-30T17:09:33.119Z,61.22
2023-01-30T17:11:59.146Z,61.30
2023-01-30T17:14:32.211Z,61.81
2023-01-30T17:17:09.222Z,62.08
2023-01-30T17:19:35.938Z,62.12
2023-01-30T17:22:04.889Z,62.35
2023-01-30T17:24:31.065Z,62.39
2023-01-30T17:27:01.907Z,62.84
2023-01-30T17:29:41.892Z,62.81
2023-01-30T17:32:11.421Z,63.12
2023-01-30T17:34:40.251Z,62.95
2023-01-30T17:37:13.676Z,63.09
2023-01-30T17:39:39.669Z,63.01
2023-01-30T17:42:09.383Z,63.29
2023-01-30T17:44:35.360Z,63.47
2023-01-30T17:47:01.384Z,63.46
2023-01-30T17:49:27.270Z,63.77
2023-01-30T17:51:54.759Z,63.87
2023-01-30T17:54:21.899Z,63.96
2023-01-30T17:56:52.195Z,63.90
2023-01-30T17:59:19.394Z,64.25
2023-01-30T18:01:50.370Z,64.00
2023-01-30T18:04:17.190Z,64.37
2023-01-30T18:06:45.817Z,64.66
2023-01-30T18:09:14.616Z,64.67
2023-01-30T18:11:40.718Z,64.79
2023-01-30T18:14:07.311Z,64.81
2023-01-30T18:16:33.548Z,65.01
2023-01-30T18:19:04.556Z,65.12
2023-01-30T18:21:33.237Z,65.52
2023-01-30T18:23:59.900Z,65.37
2023-01-30T18:26:26.576Z,65.44
2023-01-30T18:28:53.359Z,65.51
2023-01-30T18:31:22.988Z,65.44
2023-01-30T18:33:49.144Z,65.42
2023-01-30T18:36:17.081Z,65.54
2023-01-30T18:38:43.775Z,65.38
2023-01-30T18:41:13.053Z,65.67
2023-01-30T18:43:39.246Z,65.49
2023-01-30T18:46:11.517Z,65.37
2023-01-30T18:48:38.269Z,65.30
2023-01-30T18:51:05.260Z,65.29
2023-01-30T18:53:31.266Z,65.67
2023-01-30T18:55:57.816Z,65.50
2023-01-30T18:58:23.762Z,65.70
2023-01-30T19:00:49.785Z,65.56
2023-01-30T19:03:16.332Z,65.43
2023-01-30T19:05:42.321Z,66.01
2023-01-30T19:08:09.777Z,66.22
2023-01-30T19:10:35.719Z,66.03
2023-01-30T19:13:20.197Z,66.57
2023-01-30T19:15:46.224Z,66.70
2023-01-30T19:18:12.191Z,66.75
2023-01-30T19:20:38.127Z,66.76
2023-01-30T19:23:04.006Z,66.97
2023-01-30T19:25:30.003Z,66.87
2023-01-30T19:27:56.888Z,66.87
2023-01-30T19:30:23.110Z,66.58
2023-01-30T19:32:51.336Z,66.81
2023-01-30T19:35:17.772Z,66.76
2023-01-30T19:37:44.021Z,66.86
2023-01-30T19:40:10.900Z,66.83
2023-01-30T19:42:38.771Z,66.90
2023-01-30T19:45:07.096Z,67.02
2023-01-30T19:47:33.773Z,67.43
2023-01-30T19:49:59.704Z,66.98
2023-01-30T19:52:25.924Z,66.97
2023-01-30T19:54:51.979Z,67.29
2023-01-30T19:57:17.997Z,67.25
2023-01-30T19:59:44.604Z,67.60
2023-01-30T20:02:11.122Z,67.29
2023-01-30T20:04:38.948Z,67.20
2023-01-30T20:07:04.992Z,67.57
2023-01-30T20:09:31.970Z,67.28
2023-01-30T20:11:57.940Z,67.24
2023-01-30T20:14:23.950Z,67.66
2023-01-30T20:16:50.376Z,67.72
2023-01-30T20:19:16.760Z,67.61
2023-01-30T20:21:44.495Z,67.69
2023-01-30T20:24:10.944Z,67.79
2023-01-30T20:26:39.134Z,68.08
2023-01-30T20:29:07.951Z,67.87
2023-01-30T20:31:34.357Z,67.95
2023-01-30T20:34:01.968Z,68.04
2023-01-30T20:36:28.280Z,68.25
2023-01-30T20:38:55.819Z,68.05
2023-01-30T20:41:23.803Z,68.05
2023-01-30T20:43:52.352Z,68.13
2023-01-30T20:46:21.386Z,68.08
2023-01-30T20:48:48.006Z,67.99
2023-01-30T20:51:20.045Z,68.00
2023-01-30T20:53:48.296Z,67.96
2023-01-30T20:56:14.643Z,67.92
2023-01-30T20:58:40.892Z,68.44
2023-01-30T21:01:11.886Z,68.14
2023-01-30T21:03:38.320Z,68.05
2023-01-30T21:06:05.271Z,68.14
2023-01-30T21:08:31.539Z,68.34
2023-01-30T21:11:12.444Z,68.25
2023-01-30T21:13:38.615Z,68.30
2023-01-30T21:16:11.954Z,68.48
2023-01-30T21:18:40.480Z,68.77
2023-01-30T21:21:08.685Z,68.99
2023-01-30T21:23:35.689Z,69.09
2023-01-30T21:26:05.183Z,69.05
2023-01-30T21:28:31.491Z,69.38
2023-01-30T21:31:06.681Z,69.17
2023-01-30T21:33:33.488Z,69.05
2023-01-30T21:36:00.566Z,69.05
2023-01-30T21:38:46.433Z,69.05
2023-01-30T21:41:40.193Z,68.87
2023-01-30T21:44:06.521Z,68.77
2023-01-30T21:46:37.693Z,68.86
2023-01-30T21:49:04.511Z,68.67
2023-01-30T21:51:31.574Z,68.47
2023-01-30T21:53:59.505Z,68.10
2023-01-30T21:56:25.667Z,68.35
2023-01-30T21:58:51.618Z,68.21
2023-01-30T22:01:17.966Z,68.36
2023-01-30T22:03:44.342Z,68.07
2023-01-30T22:06:10.882Z,68.05
2023-01-30T22:08:39.065Z,67.77
2023-01-30T22:11:11.002Z,67.85
2023-01-30T22:13:38.707Z,67.49
2023-01-30T22:16:06.473Z,67.97
2023-01-30T22:18:33.568Z,67.76
2023-01-30T22:21:10.279Z,67.75
2023-01-30T22:23:41.393Z,67.82
2023-01-30T22:26:08.690Z,67.63
2023-01-30T22:28:36.233Z,67.74
2023-01-30T22:31:05.354Z,67.85
2023-01-30T22:33:32.275Z,67.74
2023-01-30T22:35:59.369Z,67.97
2023-01-30T22:38:26.195Z,67.78
2023-01-30T22:41:03.284Z,68.09
2023-01-30T22:43:31.011Z,67.95
2023-01-30T22:46:04.815Z,67.99
2023-01-30T22:48:32.018Z,67.93
2023-01-30T22:51:06.555Z,67.96
2023-01-30T22:53:34.094Z,67.90
2023-01-30T22:56:02.137Z,67.62
2023-01-30T22:58:28.656Z,67.99
2023-01-30T23:00:54.966Z,67.45
2023-01-30T23:03:20.860Z,67.53
2023-01-30T23:05:57.739Z,67.61
2023-01-30T23:08:25.679Z,67.43
2023-01-30T23:10:52.523Z,67.49
2023-01-30T23:13:19.002Z,67.50
2023-01-30T23:15:46.222Z,67.32
2023-01-30T23:18:32.525Z,67.29
2023-01-30T23:20:58.956Z,67.10
2023-01-30T23:23:25.837Z,67.38
2023-01-30T23:25:51.906Z,67.71
2023-01-30T23:28:17.811Z,67.22
2023-01-30T23:30:44.300Z,67.64
2023-01-30T23:33:10.308Z,67.59
2023-01-30T23:35:36.602Z,67.83
2023-01-30T23:38:14.866Z,68.07
2023-01-30T23:40:47.728Z,67.84
2023-01-30T23:43:14.921Z,68.17
2023-01-30T23:45:41.815Z,68.21
2023-01-30T23:48:08.453Z,68.55
2023-01-30T23:50:37.630Z,68.33
2023-01-30T23:53:05.988Z,68.44
2023-01-30T23:55:32.624Z,68.51
2023-01-30T23:57:59.418Z,68.39
